createdAt,value
2019-04-04T00:02:06.162Z,53.16
2019-04-04T00:04:35.771Z,53.21
2019-04-04T00:07:05.455Z,53.54
2019-04-04T00:09:35.053Z,53.44
2019-04-04T00:12:06.101Z,53.04
2019-04-04T00:14:36.093Z,53.72
2019-04-04T00:17:05.719Z,54.35
2019-04-04T00:19:35.331Z,54.97
2019-04-04T00:22:05.541Z,55.68
2019-04-04T00:24:35.241Z,56.02
2019-04-04T00:27:04.866Z,56.32
2019-04-04T00:29:34.491Z,56.80
2019-04-04T00:32:04.114Z,57.07
2019-04-04T00:34:33.732Z,57.66
2019-04-04T00:37:04.765Z,57.87
2019-04-04T00:39:34.893Z,58.42
2019-04-04T00:42:04.509Z,59.02
2019-04-04T00:44:34.123Z,59.28
2019-04-04T00:47:03.728Z,60.01
2019-04-04T00:49:35.406Z,60.02
2019-04-04T00:52:04.685Z,60.30
2019-04-04T00:54:34.312Z,60.84
2019-04-04T00:57:03.935Z,61.00
2019-04-04T00:59:33.543Z,61.36
2019-04-04T01:02:03.187Z,61.33
2019-04-04T01:04:32.794Z,61.82
2019-04-04T01:07:02.997Z,62.36
2019-04-04T01:09:33.728Z,62.37
2019-04-04T01:12:03.361Z,62.51
2019-04-04T01:14:32.964Z,62.80
2019-04-04T01:17:04.160Z,63.16
2019-04-04T01:19:33.901Z,63.32
2019-04-04T01:22:03.506Z,63.57
2019-04-04T01:24:33.105Z,63.90
2019-04-04T01:27:04.145Z,64.05
2019-04-04T01:29:34.035Z,64.12
2019-04-04T01:32:03.631Z,64.24
2019-04-04T01:34:33.236Z,64.32
2019-04-04T01:37:02.843Z,64.49
2019-04-04T01:39:32.438Z,64.57
2019-04-04T01:42:02.045Z,64.79
2019-04-04T01:44:31.663Z,64.95
2019-04-04T01:47:01.277Z,65.00
2019-04-04T01:49:30.882Z,64.75
2019-04-04T01:52:00.492Z,64.71
2019-04-04T01:54:32.163Z,64.86
2019-04-04T01:57:01.407Z,65.01
2019-04-04T01:59:31.010Z,65.15
2019-04-04T02:02:00.627Z,65.49
2019-04-04T02:04:30.232Z,65.58
2019-04-04T02:06:59.855Z,65.67
2019-04-04T02:09:29.469Z,65.87
2019-04-04T02:11:59.077Z,65.93
2019-04-04T02:14:28.688Z,65.98
2019-04-04T02:16:58.308Z,66.09
2019-04-04T02:19:27.915Z,66.46
2019-04-04T02:21:57.918Z,66.59
2019-04-04T02:24:29.813Z,66.92
2019-04-04T02:27:00.206Z,66.99
2019-04-04T02:29:29.802Z,67.07
2019-04-04T02:32:01.046Z,67.07
2019-04-04T02:34:30.647Z,67.40
2019-04-04T02:37:00.253Z,66.44
2019-04-04T02:39:29.978Z,64.95
2019-04-04T02:41:59.634Z,64.25
2019-04-04T02:44:31.721Z,63.51
2019-04-04T02:47:00.567Z,63.14
2019-04-04T02:49:30.210Z,63.00
2019-04-04T02:51:59.788Z,63.18
2019-04-04T02:54:29.395Z,63.28
2019-04-04T02:56:59.018Z,63.11
2019-04-04T02:59:28.614Z,63.23
2019-04-04T03:01:58.229Z,63.05
2019-04-04T03:04:28.018Z,62.78
2019-04-04T03:06:58.700Z,62.68
2019-04-04T03:09:28.403Z,62.46
2019-04-04T03:11:58.084Z,62.25
2019-04-04T03:14:27.697Z,62.23
2019-04-04T03:16:57.902Z,62.23
2019-04-04T03:19:27.472Z,61.92
2019-04-04T03:21:57.080Z,61.80
2019-04-04T03:24:26.677Z,63.09
2019-04-04T03:26:56.299Z,62.17
2019-04-04T03:29:25.886Z,61.44
2019-04-04T03:31:55.556Z,61.56
2019-04-04T03:34:25.184Z,61.60
2019-04-04T03:36:54.788Z,61.43
2019-04-04T03:39:24.401Z,61.43
2019-04-04T03:41:54.006Z,61.42
2019-04-04T03:44:23.614Z,61.44
2019-04-04T03:46:53.211Z,61.50
2019-04-04T03:49:24.536Z,61.68
2019-04-04T03:51:54.370Z,61.80
2019-04-04T03:54:25.571Z,61.92
2019-04-04T03:56:55.188Z,61.76
2019-04-04T03:59:24.788Z,61.59
2019-04-04T04:01:54.380Z,61.64
2019-04-04T04:04:26.842Z,61.78
2019-04-04T04:06:55.738Z,61.80
2019-04-04T04:09:26.539Z,61.64
2019-04-04T04:11:56.877Z,61.64
2019-04-04T04:14:26.470Z,61.50
2019-04-04T04:16:56.152Z,61.18
2019-04-04T04:19:29.952Z,61.22
2019-04-04T04:21:57.370Z,61.12
2019-04-04T04:24:29.522Z,60.83
2019-04-04T04:26:58.322Z,60.75
2019-04-04T04:29:29.934Z,60.70
2019-04-04T04:31:59.272Z,60.57
2019-04-04T04:34:33.017Z,60.49
2019-04-04T04:37:00.219Z,60.20
2019-04-04T04:39:29.834Z,59.97
2019-04-04T04:41:59.500Z,59.82
2019-04-04T04:44:29.103Z,59.52
2019-04-04T04:46:58.706Z,59.48
2019-04-04T04:49:28.308Z,59.42
2019-04-04T04:51:57.898Z,59.29
2019-04-04T04:54:27.514Z,59.38
2019-04-04T04:56:57.128Z,59.64
2019-04-04T04:59:26.736Z,59.29
2019-04-04T05:01:56.341Z,59.33
2019-04-04T05:04:28.302Z,59.52
2019-04-04T05:06:57.985Z,59.75
2019-04-04T05:09:27.601Z,59.20
2019-04-04T05:11:57.196Z,58.58
2019-04-04T05:14:27.811Z,58.07
2019-04-04T05:16:58.153Z,58.24
2019-04-04T05:19:27.773Z,58.06
2019-04-04T05:21:57.424Z,57.75
2019-04-04T05:24:27.006Z,57.68
2019-04-04T05:26:56.626Z,57.54
2019-04-04T05:29:26.223Z,57.47
2019-04-04T05:31:55.823Z,57.46
2019-04-04T05:34:25.829Z,57.31
2019-04-04T05:36:55.453Z,57.61
2019-04-04T05:39:25.125Z,57.81
2019-04-04T05:41:54.777Z,58.06
2019-04-04T05:44:24.390Z,58.14
2019-04-04T05:46:54.064Z,57.58
2019-04-04T05:49:23.706Z,56.58
2019-04-04T05:51:53.326Z,56.19
2019-04-04T05:54:23.059Z,56.09
2019-04-04T05:56:52.693Z,55.36
2019-04-04T05:59:23.909Z,55.03
2019-04-04T06:01:53.610Z,54.51
2019-04-04T06:04:23.288Z,54.65
2019-04-04T06:06:55.391Z,54.77
2019-04-04T06:09:24.196Z,54.74
2019-04-04T06:11:54.099Z,54.82
2019-04-04T06:14:23.729Z,54.66
2019-04-04T06:16:53.359Z,54.67
2019-04-04T06:19:22.970Z,54.54
2019-04-04T06:21:52.576Z,53.95
2019-04-04T06:24:22.210Z,53.65
2019-04-04T06:26:52.083Z,53.36
2019-04-04T06:29:21.714Z,52.19
2019-04-04T06:31:51.323Z,51.98
2019-04-04T06:34:23.898Z,52.11
2019-04-04T06:36:52.279Z,52.72
2019-04-04T06:39:24.777Z,52.48
2019-04-04T06:41:53.231Z,52.43
2019-04-04T06:44:24.527Z,52.81
2019-04-04T06:46:54.207Z,52.72
2019-04-04T06:49:23.932Z,52.92
2019-04-04T06:51:53.540Z,53.38
2019-04-04T06:54:25.706Z,53.25
2019-04-04T06:56:54.498Z,53.04
2019-04-04T06:59:24.566Z,53.11
2019-04-04T07:01:54.286Z,52.85
2019-04-04T07:04:23.916Z,53.17
2019-04-04T07:06:53.513Z,53.45
2019-04-04T07:09:23.122Z,53.62
2019-04-04T07:11:52.744Z,53.33
2019-04-04T07:14:22.367Z,52.77
2019-04-04T07:16:52.009Z,52.24
2019-04-04T07:19:21.684Z,51.66
2019-04-04T07:21:54.243Z,51.26
2019-04-04T07:24:23.867Z,50.69
2019-04-04T07:26:53.475Z,50.00
2019-04-04T07:29:25.338Z,49.34
2019-04-04T07:31:54.439Z,48.48
2019-04-04T07:34:24.101Z,48.26
2019-04-04T07:36:53.720Z,48.90
2019-04-04T07:39:23.367Z,47.80
2019-04-04T07:41:52.968Z,47.92
2019-04-04T07:44:23.273Z,47.30
2019-04-04T07:46:53.601Z,46.76
2019-04-04T07:49:23.950Z,45.91
2019-04-04T07:51:53.734Z,45.34
2019-04-04T07:54:23.365Z,44.95
2019-04-04T07:56:53.001Z,44.76
2019-04-04T07:59:22.617Z,43.78
2019-04-04T08:01:52.230Z,42.46
2019-04-04T08:04:21.888Z,42.61
2019-04-04T08:06:51.496Z,42.94
2019-04-04T08:09:21.137Z,42.41
2019-04-04T08:11:50.746Z,42.56
2019-04-04T08:14:20.360Z,42.66
2019-04-04T08:16:49.976Z,42.26
2019-04-04T08:19:19.591Z,41.56
2019-04-04T08:21:50.759Z,38.78
2019-04-04T08:24:20.387Z,35.05
2019-04-04T08:26:49.976Z,31.92
2019-04-04T08:29:19.649Z,31.84
2019-04-04T08:31:49.213Z,32.98
2019-04-04T08:34:18.829Z,34.13
2019-04-04T08:36:48.442Z,35.19
2019-04-04T08:39:18.139Z,36.10
2019-04-04T08:41:47.780Z,37.04
2019-04-04T08:44:17.376Z,38.71
2019-04-04T08:46:47.005Z,39.49
2019-04-04T08:49:16.642Z,39.83
2019-04-04T08:51:46.285Z,39.84
2019-04-04T08:54:15.889Z,39.68
2019-04-04T08:56:45.536Z,39.18
2019-04-04T08:59:15.122Z,36.00
2019-04-04T09:01:44.776Z,30.49
2019-04-04T09:04:14.339Z,26.33
2019-04-04T09:06:43.933Z,24.20
2019-04-04T09:09:13.525Z,22.36
2019-04-04T09:11:43.141Z,21.53
2019-04-04T09:14:12.749Z,21.14
2019-04-04T09:16:42.366Z,20.10
2019-04-04T09:19:11.975Z,19.73
2019-04-04T09:21:41.594Z,19.06
2019-04-04T09:24:11.192Z,18.68
2019-04-04T09:26:40.834Z,18.63
2019-04-04T09:29:10.417Z,17.87
2019-04-04T09:31:40.033Z,17.42
2019-04-04T09:34:09.638Z,17.03
2019-04-04T09:36:39.252Z,16.45
2019-04-04T09:39:08.871Z,16.13
2019-04-04T09:41:38.487Z,15.99
2019-04-04T09:44:08.110Z,15.44
2019-04-04T09:46:37.730Z,14.69
2019-04-04T09:49:07.336Z,14.19
2019-04-04T09:51:36.970Z,13.70
2019-04-04T09:54:06.643Z,13.68
2019-04-04T09:56:36.261Z,13.72
2019-04-04T09:59:05.995Z,13.69
2019-04-04T10:01:35.622Z,13.62
2019-04-04T10:04:05.313Z,13.45
2019-04-04T10:06:34.953Z,13.18
2019-04-04T10:09:15.640Z,12.88
2019-04-04T10:11:38.023Z,12.27
2019-04-04T10:14:07.646Z,12.01
2019-04-04T10:16:37.258Z,11.97
2019-04-04T10:19:06.868Z,11.55
2019-04-04T10:21:36.479Z,11.60
2019-04-04T10:24:06.589Z,11.40
2019-04-04T10:26:36.214Z,11.84
2019-04-04T10:29:05.832Z,11.82
2019-04-04T10:31:35.429Z,11.55
2019-04-04T10:34:05.042Z,11.35
2019-04-04T10:36:34.671Z,10.61
2019-04-04T10:39:05.855Z,10.37
2019-04-04T10:41:35.875Z,10.27
2019-04-04T10:44:08.297Z,10.14
2019-04-04T10:46:37.894Z,10.19
2019-04-04T10:49:08.394Z,9.91
2019-04-04T10:51:38.095Z,9.74
2019-04-04T10:54:07.703Z,10.02
2019-04-04T10:56:37.334Z,10.23
2019-04-04T10:59:06.946Z,11.25
2019-04-04T11:01:36.555Z,11.54
2019-04-04T11:04:06.192Z,10.72
2019-04-04T11:06:35.807Z,10.41
2019-04-04T11:09:08.148Z,10.68
2019-04-04T11:11:37.765Z,10.82
2019-04-04T11:14:07.378Z,10.24
2019-04-04T11:16:36.986Z,9.74
2019-04-04T11:19:09.583Z,9.44
2019-04-04T11:21:37.961Z,9.53
2019-04-04T11:24:07.561Z,9.11
2019-04-04T11:26:37.192Z,8.98
2019-04-04T11:29:06.821Z,8.92
2019-04-04T11:31:36.439Z,8.66
2019-04-04T11:34:06.057Z,8.77
2019-04-04T11:36:35.672Z,8.60
2019-04-04T11:39:07.174Z,8.22
2019-04-04T11:41:36.779Z,8.00
2019-04-04T11:44:07.055Z,8.22
2019-04-04T11:46:36.685Z,8.35
2019-04-04T11:49:06.303Z,8.01
2019-04-04T11:51:35.921Z,7.82
2019-04-04T11:54:05.533Z,7.88
2019-04-04T11:56:35.171Z,8.01
2019-04-04T11:59:04.852Z,7.47
2019-04-04T12:01:38.986Z,7.58
2019-04-04T12:04:08.920Z,7.67
2019-04-04T12:06:38.562Z,7.63
2019-04-04T12:09:09.120Z,7.45
2019-04-04T12:11:39.093Z,7.69
2019-04-04T12:14:08.706Z,7.65
2019-04-04T12:16:38.318Z,7.11
2019-04-04T12:19:07.914Z,6.91
2019-04-04T12:21:37.813Z,7.09
2019-04-04T12:24:08.979Z,7.36
2019-04-04T12:26:38.608Z,7.27
2019-04-04T12:29:08.200Z,7.13
2019-04-04T12:31:37.825Z,7.15
2019-04-04T12:34:07.427Z,7.28
2019-04-04T12:36:37.048Z,6.86
2019-04-04T12:39:08.362Z,6.60
2019-04-04T12:41:37.997Z,6.75
2019-04-04T12:44:07.694Z,6.98
2019-04-04T12:46:37.300Z,7.69
2019-04-04T12:49:07.972Z,7.66
2019-04-04T12:51:37.651Z,7.68
2019-04-04T12:54:07.253Z,8.06
2019-04-04T12:56:36.874Z,8.00
2019-04-04T12:59:06.486Z,7.75
2019-04-04T13:01:36.144Z,7.87
2019-04-04T13:04:05.935Z,7.78
2019-04-04T13:06:35.565Z,7.99
2019-04-04T13:09:08.051Z,8.19
2019-04-04T13:11:37.727Z,7.84
2019-04-04T13:14:07.364Z,7.86
2019-04-04T13:16:36.985Z,8.04
2019-04-04T13:19:06.575Z,8.07
2019-04-04T13:21:36.202Z,8.03
2019-04-04T13:24:05.876Z,8.20
2019-04-04T13:26:35.491Z,8.30
2019-04-04T13:29:05.166Z,8.08
2019-04-04T13:31:35.569Z,7.78
2019-04-04T13:34:05.170Z,7.71
2019-04-04T13:36:36.723Z,7.90
2019-04-04T13:39:10.225Z,7.73
2019-04-04T13:41:39.848Z,8.19
2019-04-04T13:44:09.534Z,8.21
2019-04-04T13:46:39.208Z,8.36
2019-04-04T13:49:08.838Z,8.04
2019-04-04T13:51:38.516Z,7.81
2019-04-04T13:54:08.155Z,7.37
2019-04-04T13:56:38.302Z,6.99
2019-04-04T13:59:09.319Z,6.76
2019-04-04T14:01:41.873Z,6.57
2019-04-04T14:04:10.300Z,7.02
2019-04-04T14:06:39.908Z,7.53
2019-04-04T14:09:12.373Z,8.15
2019-04-04T14:11:43.686Z,8.67
2019-04-04T14:14:13.290Z,9.12
2019-04-04T14:16:43.872Z,8.42
2019-04-04T14:19:14.656Z,7.78
2019-04-04T14:21:45.557Z,10.35
2019-04-04T14:24:16.048Z,13.38
2019-04-04T14:26:47.159Z,16.11
2019-04-04T14:29:26.776Z,15.98
2019-04-04T14:31:49.439Z,15.88
2019-04-04T14:34:19.171Z,17.34
2019-04-04T14:36:48.780Z,17.86
2019-04-04T14:39:20.195Z,18.72
2019-04-04T14:41:49.792Z,19.09
2019-04-04T14:44:19.425Z,19.53
2019-04-04T14:46:49.036Z,20.29
2019-04-04T14:51:44.447Z,21.04
2019-04-04T14:54:14.066Z,21.07
2019-04-04T14:56:43.675Z,21.45
2019-04-04T14:59:13.315Z,21.54
2019-04-04T15:01:45.122Z,22.14
2019-04-04T15:04:14.777Z,22.12
2019-04-04T15:06:44.422Z,22.44
2019-04-04T15:09:14.109Z,22.54
2019-04-04T15:11:43.720Z,23.41
2019-04-04T15:14:15.217Z,23.18
2019-04-04T15:16:44.907Z,23.60
2019-04-04T15:19:14.553Z,23.97
2019-04-04T15:21:44.172Z,24.16
2019-04-04T15:24:13.806Z,24.08
2019-04-04T15:26:43.443Z,24.38
2019-04-04T15:29:13.177Z,24.49
2019-04-04T15:31:42.882Z,24.61
2019-04-04T15:34:12.584Z,24.72
2019-04-04T15:36:45.278Z,24.51
2019-04-04T15:39:16.068Z,24.38
2019-04-04T15:41:47.572Z,24.10
2019-04-04T15:44:19.058Z,24.52
2019-04-04T15:46:50.147Z,25.14
2019-04-04T15:49:19.800Z,25.18
2019-04-04T15:51:49.428Z,25.68
2019-04-04T15:54:19.738Z,25.95
2019-04-04T15:56:49.494Z,26.08
2019-04-04T15:59:20.227Z,26.21
2019-04-04T16:01:49.860Z,26.34
2019-04-04T16:04:19.481Z,26.45
2019-04-04T16:06:49.089Z,26.58
2019-04-04T16:09:18.692Z,26.63
2019-04-04T16:11:49.828Z,26.72
2019-04-04T16:14:22.192Z,26.54
2019-04-04T16:16:51.804Z,26.77
2019-04-04T16:19:21.446Z,26.86
2019-04-04T16:21:51.058Z,26.61
2019-04-04T16:24:22.135Z,26.64
2019-04-04T16:26:51.754Z,26.63
2019-04-04T16:29:23.541Z,26.77
2019-04-04T16:31:53.137Z,26.73
2019-04-04T16:34:23.257Z,26.81
2019-04-04T16:36:54.347Z,26.93
2019-04-04T16:39:23.997Z,27.03
2019-04-04T16:42:02.103Z,27.26
2019-04-04T16:44:24.953Z,27.37
2019-04-04T16:46:54.555Z,27.52
2019-04-04T16:49:24.153Z,27.61
2019-04-04T16:51:53.791Z,27.77
2019-04-04T16:54:25.945Z,27.93
2019-04-04T16:56:56.808Z,28.08
2019-04-04T16:59:27.201Z,28.39
2019-04-04T17:01:57.639Z,28.69
2019-04-04T17:04:27.329Z,28.93
2019-04-04T17:06:57.009Z,29.24
2019-04-04T17:09:26.678Z,29.60
2019-04-04T17:11:56.305Z,34.56
2019-04-04T17:14:26.513Z,37.82
2019-04-04T17:16:56.129Z,38.95
2019-04-04T17:19:25.767Z,40.33
2019-04-04T17:21:56.145Z,41.32
2019-04-04T17:24:25.773Z,42.10
2019-04-04T17:26:57.468Z,43.83
2019-04-04T17:29:26.729Z,44.87
2019-04-04T17:31:56.336Z,45.76
2019-04-04T17:34:26.309Z,46.39
2019-04-04T17:36:56.384Z,47.32
2019-04-04T17:39:25.974Z,47.83
2019-04-04T17:41:55.710Z,48.80
2019-04-04T17:44:27.463Z,49.46
2019-04-04T17:46:57.453Z,49.84
2019-04-04T17:49:27.233Z,50.63
2019-04-04T17:51:57.121Z,50.94
2019-04-04T17:54:26.828Z,51.51
2019-04-04T17:56:56.392Z,51.86
2019-04-04T17:59:26.066Z,52.45
2019-04-04T18:01:55.707Z,53.13
2019-04-04T18:04:25.343Z,53.46
2019-04-04T18:06:54.975Z,54.07
2019-04-04T18:09:31.764Z,54.43
2019-04-04T18:11:55.945Z,55.06
2019-04-04T18:14:25.591Z,55.20
2019-04-04T18:16:55.221Z,55.71
2019-04-04T18:19:24.938Z,55.97
2019-04-04T18:21:54.531Z,56.37
2019-04-04T18:24:24.195Z,56.65
2019-04-04T18:26:54.067Z,57.01
2019-04-04T18:29:23.676Z,57.40
2019-04-04T18:31:53.267Z,57.36
2019-04-04T18:34:23.373Z,57.51
2019-04-04T18:36:53.145Z,57.28
2019-04-04T18:39:26.376Z,57.47
2019-04-04T18:41:54.860Z,57.53
2019-04-04T18:44:24.457Z,57.66
2019-04-04T18:46:55.275Z,57.94
2019-04-04T18:49:26.427Z,57.54
2019-04-04T18:51:56.826Z,57.84
2019-04-04T18:54:26.543Z,57.70
2019-04-04T18:56:58.173Z,57.75
2019-04-04T18:59:27.793Z,58.03
2019-04-04T19:01:59.404Z,58.23
2019-04-04T19:04:31.339Z,58.39
2019-04-04T19:07:00.937Z,58.67
2019-04-04T19:09:30.662Z,58.82
2019-04-04T19:12:00.277Z,58.84
2019-04-04T19:14:32.458Z,58.80
2019-04-04T19:17:02.743Z,59.10
2019-04-04T19:19:32.964Z,59.14
2019-04-04T19:22:04.983Z,59.37
2019-04-04T19:24:36.935Z,59.70
2019-04-04T19:27:09.621Z,59.76
2019-04-04T19:29:40.487Z,60.19
2019-04-04T19:32:11.601Z,60.36
2019-04-04T19:34:43.754Z,60.56
2019-04-04T19:37:13.406Z,60.79
2019-04-04T19:39:43.020Z,60.86
2019-04-04T19:42:12.663Z,61.09
2019-04-04T19:44:52.686Z,61.20
2019-04-04T19:47:13.613Z,61.15
2019-04-04T19:49:43.237Z,61.21
2019-04-04T19:52:12.928Z,60.97
2019-04-04T19:54:43.013Z,60.84
2019-04-04T19:57:12.626Z,61.20
2019-04-04T19:59:42.403Z,61.45
2019-04-04T20:02:11.997Z,61.57
2019-04-04T20:04:42.755Z,61.58
2019-04-04T20:07:13.942Z,61.92
2019-04-04T20:09:44.978Z,62.26
2019-04-04T20:12:14.637Z,62.40
2019-04-04T20:14:45.862Z,62.69
2019-04-04T20:17:18.356Z,62.84
2019-04-04T20:19:48.085Z,63.09
2019-04-04T20:22:17.768Z,63.34
2019-04-04T20:24:49.366Z,63.38
2019-04-04T20:27:21.591Z,63.62
2019-04-04T20:29:52.767Z,63.80
2019-04-04T20:32:22.519Z,63.78
2019-04-04T20:34:52.131Z,63.95
2019-04-04T20:37:21.703Z,64.09
2019-04-04T20:39:51.389Z,64.23
2019-04-04T20:42:21.282Z,64.37
2019-04-04T20:44:50.879Z,64.60
2019-04-04T20:47:20.510Z,64.78
2019-04-04T20:49:50.603Z,64.92
2019-04-04T20:52:20.211Z,65.09
2019-04-04T20:54:49.821Z,65.21
2019-04-04T20:57:19.547Z,65.07
2019-04-04T20:59:51.969Z,65.03
2019-04-04T21:02:21.674Z,65.09
2019-04-04T21:04:54.588Z,65.06
2019-04-04T21:07:24.664Z,65.03
2019-04-04T21:09:54.294Z,64.65
2019-04-04T21:12:24.008Z,64.62
2019-04-04T21:14:53.588Z,64.69
2019-04-04T21:17:24.538Z,64.54
2019-04-04T21:19:54.149Z,63.90
2019-04-04T21:22:27.824Z,63.34
2019-04-04T21:24:55.099Z,63.02
2019-04-04T21:27:25.311Z,62.79
2019-04-04T21:29:56.436Z,62.43
2019-04-04T21:32:26.044Z,62.36
2019-04-04T21:34:55.657Z,62.43
2019-04-04T21:37:25.508Z,62.10
2019-04-04T21:39:55.130Z,62.02
2019-04-04T21:42:25.413Z,62.26
2019-04-04T21:44:55.022Z,62.18
2019-04-04T21:47:24.659Z,62.27
2019-04-04T21:49:54.419Z,62.18
2019-04-04T21:52:24.299Z,62.05
2019-04-04T21:54:53.898Z,62.08
2019-04-04T21:57:23.522Z,62.03
2019-04-04T21:59:53.120Z,62.12
2019-04-04T22:02:22.815Z,62.06
2019-04-04T22:04:52.427Z,61.96
2019-04-04T22:07:22.154Z,61.79
2019-04-04T22:09:51.824Z,61.91
2019-04-04T22:12:22.071Z,61.87
2019-04-04T22:14:51.681Z,61.92
2019-04-04T22:17:21.300Z,61.96
2019-04-04T22:19:50.900Z,61.75
2019-04-04T22:22:20.511Z,61.78
2019-04-04T22:24:50.144Z,61.96
2019-04-04T22:27:19.759Z,62.17
2019-04-04T22:29:49.371Z,62.20
2019-04-04T22:32:18.977Z,62.21
2019-04-04T22:34:48.582Z,62.20
2019-04-04T22:37:20.884Z,62.10
2019-04-04T22:39:51.257Z,62.01
2019-04-04T22:42:20.888Z,62.07
2019-04-04T22:44:50.487Z,62.09
2019-04-04T22:47:21.734Z,62.14
2019-04-04T22:49:51.350Z,62.04
2019-04-04T22:52:21.216Z,62.12
2019-04-04T22:54:50.827Z,62.22
2019-04-04T22:57:20.482Z,62.12
2019-04-04T22:59:50.070Z,62.08
2019-04-04T23:02:19.684Z,62.12
2019-04-04T23:04:49.307Z,61.95
2019-04-04T23:07:20.455Z,61.98
2019-04-04T23:09:50.064Z,62.09
2019-04-04T23:12:19.674Z,62.26
2019-04-04T23:14:49.308Z,62.24
2019-04-04T23:17:18.921Z,62.19
2019-04-04T23:19:48.522Z,62.23
2019-04-04T23:22:18.170Z,61.97
2019-04-04T23:24:47.769Z,61.89
2019-04-04T23:27:17.409Z,61.84
2019-04-04T23:29:47.035Z,62.00
2019-04-04T23:32:16.667Z,61.80
2019-04-04T23:34:46.276Z,61.86
2019-04-04T23:37:15.905Z,61.95
2019-04-04T23:39:45.542Z,62.00
2019-04-04T23:42:15.249Z,62.02
2019-04-04T23:44:44.833Z,62.04
2019-04-04T23:47:14.451Z,62.07
2019-04-04T23:49:44.079Z,61.96
2019-04-04T23:52:13.683Z,62.00
2019-04-04T23:54:43.298Z,61.98
2019-04-04T23:57:12.903Z,62.06
2019-04-04T23:59:42.520Z,61.71
